Time;durP1;ratioP1;P1;durP2;ratioP2;P2;SDS_P1;SDS_P2;PMS_P1;PMS_P2;Temp;Humidity;BMP_temperature;BMP_pressure;BME280_temperature;BME280_humidity;BME280_pressure;Samples;Min_cycle;Max_cycle;Signal;HPM_P1;HPM_P2
2022/07/16 00:01:24;;;;;;;;;4.25;4.25;;;;;;;;5076098;27;45444;-63
2022/07/16 00:03:53;;;;;;;;;3.75;3.75;;;;;;;;5094546;27;45397;-63
2022/07/16 00:06:19;;;;;;;;;1.75;1.75;;;;;;;;5094299;27;46081;-64
2022/07/16 00:08:44;;;;;;;;;2.00;2.00;;;;;;;;5075819;27;45403;-64
2022/07/16 00:11:09;;;;;;;;;3.00;3.00;;;;;;;;5076103;27;45483;-64
2022/07/16 00:13:35;;;;;;;;;2.00;2.00;;;;;;;;5075796;27;45493;-63
2022/07/16 00:16:00;;;;;;;;;3.00;3.00;;;;;;;;5093906;27;46196;-63
2022/07/16 00:21:09;;;;;;;;;3.25;2.00;;;;;;;;5094677;27;45599;-65
2022/07/16 00:23:34;;;;;;;;;4.00;3.00;;;;;;;;5094451;27;45422;-64
2022/07/16 00:25:59;;;;;;;;;3.00;3.00;;;;;;;;5094118;27;45478;-64
2022/07/16 00:28:24;;;;;;;;;2.50;2.50;;;;;;;;5094174;27;45417;-62
2022/07/16 00:30:50;;;;;;;;;2.00;2.00;;;;;;;;5075705;27;45448;-63
2022/07/16 00:33:15;;;;;;;;;2.00;2.00;;;;;;;;5094122;27;45429;-63
2022/07/16 00:35:40;;;;;;;;;1.00;1.00;;;;;;;;5093859;27;45404;-64
2022/07/16 00:38:07;;;;;;;;;2.00;2.00;;;;;;;;5093757;27;45397;-64
2022/07/16 00:40:32;;;;;;;;;3.00;3.00;;;;;;;;5075558;27;45437;-63
2022/07/16 00:42:58;;;;;;;;;2.50;2.50;;;;;;;;5093409;27;45531;-63
2022/07/16 00:45:23;;;;;;;;;3.50;3.50;;;;;;;;5093675;27;45455;-63
2022/07/16 00:47:49;;;;;;;;;3.25;3.00;;;;;;;;5093667;27;45593;-63
2022/07/16 00:50:14;;;;;;;;;5.50;4.00;;;;;;;;5075100;27;45404;-63
2022/07/16 00:52:39;;;;;;;;;3.25;3.25;;;;;;;;5093724;27;45359;-62
2022/07/16 00:55:05;;;;;;;;;3.50;2.00;;;;;;;;5093413;27;46351;-63
2022/07/16 00:57:30;;;;;;;;;3.00;3.00;;;;;;;;5093432;27;45393;-62
2022/07/16 00:59:55;;;;;;;;;3.00;3.00;;;;;;;;5093505;27;45413;-64
2022/07/16 01:02:20;;;;;;;;;3.75;3.75;;;;;;;;5093427;27;45453;-63
2022/07/16 01:04:46;;;;;;;;;5.25;4.25;;;;;;;;5093211;27;46047;-63
2022/07/16 01:07:12;;;;;;;;;3.50;2.00;;;;;;;;5093467;27;45552;-63
2022/07/16 01:09:37;;;;;;;;;2.00;2.00;;;;;;;;5093283;27;45368;-63
2022/07/16 01:12:03;;;;;;;;;4.00;3.50;;;;;;;;5093444;27;45346;-63
2022/07/16 01:14:29;;;;;;;;;2.25;2.25;;;;;;;;5093196;27;46966;-63
2022/07/16 01:16:54;;;;;;;;;1.75;1.75;;;;;;;;5093214;27;45856;-62
2022/07/16 01:19:20;;;;;;;;;4.00;4.00;;;;;;;;5093179;27;45454;-63
2022/07/16 01:21:45;;;;;;;;;3.00;2.00;;;;;;;;5093381;27;45479;-64
2022/07/16 01:24:11;;;;;;;;;3.25;3.25;;;;;;;;5093103;27;45807;-62
2022/07/16 01:26:36;;;;;;;;;2.25;2.25;;;;;;;;5074551;27;46172;-64
2022/07/16 01:29:02;;;;;;;;;2.50;2.50;;;;;;;;5093198;27;45727;-63
2022/07/16 01:31:27;;;;;;;;;2.75;2.75;;;;;;;;5093250;27;45519;-63
2022/07/16 01:36:57;;;;;;;;;4.25;3.25;;;;;;;;4989621;28;45513;-62
2022/07/16 01:39:22;;;;;;;;;6.00;3.00;;;;;;;;4989823;28;45476;-63
2022/07/16 01:41:51;;;;;;;;;3.75;3.00;;;;;;;;4989882;28;45553;-63
2022/07/16 01:44:16;;;;;;;;;3.50;3.50;;;;;;;;4989717;28;46626;-63
2022/07/16 01:46:41;;;;;;;;;3.00;3.00;;;;;;;;4989869;28;45705;-63
2022/07/16 01:49:07;;;;;;;;;3.75;3.75;;;;;;;;4989686;28;45520;-63
2022/07/16 01:51:32;;;;;;;;;5.00;5.00;;;;;;;;4989773;28;45513;-63
2022/07/16 01:53:57;;;;;;;;;3.75;2.50;;;;;;;;4989894;28;45520;-63
2022/07/16 01:56:22;;;;;;;;;4.00;4.00;;;;;;;;4989973;28;45696;-64
2022/07/16 01:58:47;;;;;;;;;4.25;4.25;;;;;;;;4989994;28;45442;-64
2022/07/16 02:01:13;;;;;;;;;3.50;3.50;;;;;;;;4989824;28;45903;-64
2022/07/16 02:03:38;;;;;;;;;4.00;4.00;;;;;;;;4989542;28;46610;-64
2022/07/16 02:06:03;;;;;;;;;2.75;2.75;;;;;;;;4989775;28;45442;-63
2022/07/16 02:08:28;;;;;;;;;2.50;2.50;;;;;;;;5052301;28;46008;-63
2022/07/16 02:10:54;;;;;;;;;3.00;3.00;;;;;;;;5071224;28;45710;-63
2022/07/16 02:13:19;;;;;;;;;3.25;3.25;;;;;;;;5071880;28;46738;-63
2022/07/16 02:15:44;;;;;;;;;4.75;4.75;;;;;;;;5071908;28;45483;-63
2022/07/16 02:18:09;;;;;;;;;3.00;3.00;;;;;;;;5072043;28;45529;-63
2022/07/16 02:20:35;;;;;;;;;4.50;3.25;;;;;;;;5071712;28;45640;-63
2022/07/16 02:23:00;;;;;;;;;5.00;3.25;;;;;;;;5071711;28;46476;-63
2022/07/16 02:25:25;;;;;;;;;5.00;5.00;;;;;;;;5070284;28;46260;-63
2022/07/16 02:28:08;;;;;;;;;3.50;3.25;;;;;;;;5071883;28;45994;-64
2022/07/16 02:30:41;;;;;;;;;3.75;3.75;;;;;;;;5071622;27;45496;-64
2022/07/16 02:33:07;;;;;;;;;1.75;1.75;;;;;;;;5071352;27;46765;-64
2022/07/16 02:35:33;;;;;;;;;4.25;3.25;;;;;;;;5071218;27;45341;-64
2022/07/16 02:37:58;;;;;;;;;2.75;2.75;;;;;;;;5087660;27;45535;-64
2022/07/16 02:40:24;;;;;;;;;3.25;3.25;;;;;;;;5093402;27;45352;-64
2022/07/16 02:42:49;;;;;;;;;2.25;2.00;;;;;;;;5095066;27;46604;-64
2022/07/16 02:45:14;;;;;;;;;2.00;2.00;;;;;;;;5095306;27;45613;-64
2022/07/16 02:47:39;;;;;;;;;2.00;2.00;;;;;;;;5076746;27;45475;-64
2022/07/16 02:50:06;;;;;;;;;1.75;1.75;;;;;;;;5095158;27;45575;-64
2022/07/16 02:52:31;;;;;;;;;3.00;3.00;;;;;;;;5094891;27;46478;-64
2022/07/16 02:54:56;;;;;;;;;3.75;2.50;;;;;;;;5095034;27;45863;-64
2022/07/16 02:57:21;;;;;;;;;5.75;4.25;;;;;;;;5095262;27;45410;-64
2022/07/16 02:59:47;;;;;;;;;3.00;3.00;;;;;;;;5095206;27;45450;-64
2022/07/16 03:02:12;;;;;;;;;3.25;3.25;;;;;;;;5094799;27;45756;-64
2022/07/16 03:04:37;;;;;;;;;2.50;2.00;;;;;;;;5095068;27;45734;-64
2022/07/16 03:07:03;;;;;;;;;1.25;1.25;;;;;;;;5095017;27;45582;-64
2022/07/16 03:09:28;;;;;;;;;4.00;4.00;;;;;;;;5094975;27;45499;-64
2022/07/16 03:11:53;;;;;;;;;4.50;4.00;;;;;;;;5076166;27;47633;-64
2022/07/16 03:14:18;;;;;;;;;5.25;3.50;;;;;;;;5094710;27;45677;-65
2022/07/16 03:16:43;;;;;;;;;3.50;3.00;;;;;;;;5094916;27;45423;-63
2022/07/16 03:19:09;;;;;;;;;4.00;4.00;;;;;;;;5094709;27;45349;-64
2022/07/16 03:21:34;;;;;;;;;4.00;3.00;;;;;;;;5094634;27;45527;-63
2022/07/16 03:23:59;;;;;;;;;3.75;3.75;;;;;;;;5094774;27;45558;-64
2022/07/16 03:26:24;;;;;;;;;4.00;4.00;;;;;;;;5094648;27;45515;-64
2022/07/16 03:28:50;;;;;;;;;5.00;4.00;;;;;;;;5076025;27;45409;-64
2022/07/16 03:31:17;;;;;;;;;5.75;3.25;;;;;;;;5094478;27;46011;-64
2022/07/16 03:33:42;;;;;;;;;4.75;4.75;;;;;;;;5094347;27;45571;-64
2022/07/16 03:36:07;;;;;;;;;5.50;5.50;;;;;;;;5094197;27;45370;-64
2022/07/16 03:41:16;;;;;;;;;3.50;3.50;;;;;;;;5094359;27;45794;-63
2022/07/16 03:43:42;;;;;;;;;4.50;4.50;;;;;;;;5094067;27;45462;-63
2022/07/16 03:46:12;;;;;;;;;3.75;3.75;;;;;;;;5094256;27;45501;-62
2022/07/16 03:48:37;;;;;;;;;6.00;5.00;;;;;;;;5094436;27;45825;-63
2022/07/16 03:51:04;;;;;;;;;7.50;6.00;;;;;;;;5093033;27;45412;-63
2022/07/16 03:53:29;;;;;;;;;4.75;3.00;;;;;;;;5075224;27;45582;-63
2022/07/16 03:55:54;;;;;;;;;4.25;4.25;;;;;;;;5094123;27;45398;-63
2022/07/16 03:58:19;;;;;;;;;6.00;4.50;;;;;;;;5094095;27;45354;-63
2022/07/16 04:00:45;;;;;;;;;4.00;4.00;;;;;;;;5093936;27;46631;-63
2022/07/16 04:03:10;;;;;;;;;5.75;5.00;;;;;;;;5075424;27;46202;-63
2022/07/16 04:05:35;;;;;;;;;5.75;5.00;;;;;;;;5094171;27;45346;-63
2022/07/16 04:08:00;;;;;;;;;3.00;3.00;;;;;;;;5094161;27;45391;-62
2022/07/16 04:10:25;;;;;;;;;5.50;3.75;;;;;;;;5093557;27;45813;-62
2022/07/16 04:12:50;;;;;;;;;3.75;3.75;;;;;;;;5075401;27;46130;-63
2022/07/16 04:15:16;;;;;;;;;3.75;3.75;;;;;;;;5093716;27;45400;-62
2022/07/16 04:17:41;;;;;;;;;4.00;4.00;;;;;;;;5093861;27;45332;-63
2022/07/16 04:20:06;;;;;;;;;5.50;4.00;;;;;;;;5093662;27;45664;-63
2022/07/16 04:22:32;;;;;;;;;3.50;3.50;;;;;;;;5093773;27;45436;-63
2022/07/16 04:24:57;;;;;;;;;6.00;3.50;;;;;;;;5075450;27;45424;-62
2022/07/16 04:27:22;;;;;;;;;3.75;3.75;;;;;;;;5093702;27;45430;-63
2022/07/16 04:29:47;;;;;;;;;5.00;5.00;;;;;;;;5093481;27;46208;-63
2022/07/16 04:32:13;;;;;;;;;5.25;4.50;;;;;;;;5093472;27;45368;-62
2022/07/16 04:34:38;;;;;;;;;4.75;4.75;;;;;;;;5093763;27;45429;-63
2022/07/16 04:37:03;;;;;;;;;3.75;3.75;;;;;;;;5093392;27;45461;-62
2022/07/16 04:39:28;;;;;;;;;3.25;3.00;;;;;;;;5092999;27;46406;-62
2022/07/16 04:41:53;;;;;;;;;2.75;2.75;;;;;;;;5093695;27;46100;-63
2022/07/16 04:44:19;;;;;;;;;3.50;3.50;;;;;;;;5093467;27;45499;-62
2022/07/16 04:46:44;;;;;;;;;6.00;4.00;;;;;;;;5093444;27;45476;-63
2022/07/16 04:49:09;;;;;;;;;4.00;4.00;;;;;;;;5093162;27;46391;-62
2022/07/16 04:51:34;;;;;;;;;5.00;4.00;;;;;;;;5093109;27;45330;-62
2022/07/16 04:53:59;;;;;;;;;4.25;4.25;;;;;;;;5093398;27;45451;-63
2022/07/16 04:56:24;;;;;;;;;3.75;3.75;;;;;;;;5074791;27;45498;-62
2022/07/16 04:58:50;;;;;;;;;4.75;4.25;;;;;;;;5092813;27;45896;-63
2022/07/16 05:01:15;;;;;;;;;7.00;5.00;;;;;;;;5093006;27;45691;-62
2022/07/16 05:03:40;;;;;;;;;5.00;5.00;;;;;;;;5092870;27;45574;-63
2022/07/16 05:06:05;;;;;;;;;4.50;4.50;;;;;;;;5093327;27;45971;-63
2022/07/16 05:08:30;;;;;;;;;3.75;3.75;;;;;;;;5092908;27;46500;-63
2022/07/16 05:10:56;;;;;;;;;5.50;4.50;;;;;;;;5092867;27;45469;-63
2022/07/16 05:13:21;;;;;;;;;5.00;5.00;;;;;;;;5074658;27;45597;-62
2022/07/16 05:15:46;;;;;;;;;4.25;4.25;;;;;;;;5093027;27;45422;-63
2022/07/16 05:18:12;;;;;;;;;5.50;4.00;;;;;;;;5092864;27;46398;-62
2022/07/16 05:20:37;;;;;;;;;3.00;3.00;;;;;;;;5092648;27;45531;-64
2022/07/16 05:23:03;;;;;;;;;5.00;3.50;;;;;;;;5092923;27;45645;-64
2022/07/16 05:25:28;;;;;;;;;3.50;3.50;;;;;;;;5074395;27;45499;-62
2022/07/16 05:27:53;;;;;;;;;5.75;3.75;;;;;;;;5074052;27;48300;-63
2022/07/16 05:30:19;;;;;;;;;4.00;4.00;;;;;;;;5074198;27;45397;-63
2022/07/16 05:32:44;;;;;;;;;2.75;2.75;;;;;;;;5093004;27;45465;-63
2022/07/16 05:35:10;;;;;;;;;5.75;4.25;;;;;;;;5074521;27;45527;-63
2022/07/16 05:37:36;;;;;;;;;4.25;3.25;;;;;;;;5070787;28;46324;-62
2022/07/16 05:40:01;;;;;;;;;5.25;5.25;;;;;;;;5054181;28;45476;-63
2022/07/16 05:42:26;;;;;;;;;5.00;5.00;;;;;;;;5072809;28;45930;-62
2022/07/16 05:44:52;;;;;;;;;8.50;5.00;;;;;;;;5068498;28;45393;-63
2022/07/16 05:47:17;;;;;;;;;4.50;4.50;;;;;;;;5072503;28;46118;-63
2022/07/16 05:49:42;;;;;;;;;6.00;4.25;;;;;;;;5054457;28;45421;-62
2022/07/16 05:52:07;;;;;;;;;8.50;8.00;;;;;;;;5072777;28;45458;-63
2022/07/16 05:54:32;;;;;;;;;6.75;5.00;;;;;;;;5072426;28;45360;-62
2022/07/16 05:56:58;;;;;;;;;6.00;6.00;;;;;;;;5072422;28;45473;-62
2022/07/16 05:59:23;;;;;;;;;4.25;4.25;;;;;;;;5054146;28;45500;-62
2022/07/16 06:01:48;;;;;;;;;4.00;4.00;;;;;;;;5072466;28;45919;-63
2022/07/16 06:04:13;;;;;;;;;6.25;6.25;;;;;;;;5072522;28;45404;-63
2022/07/16 06:06:38;;;;;;;;;11.75;7.50;;;;;;;;5071987;28;46283;-63
2022/07/16 06:09:04;;;;;;;;;2.50;2.25;;;;;;;;5053939;28;45397;-63
2022/07/16 06:11:29;;;;;;;;;5.00;5.00;;;;;;;;5072224;28;45445;-64
2022/07/16 06:13:54;;;;;;;;;5.75;5.25;;;;;;;;5072221;27;45559;-63
2022/07/16 06:16:20;;;;;;;;;7.50;4.00;;;;;;;;5074970;28;46370;-62
2022/07/16 06:18:46;;;;;;;;;4.75;4.50;;;;;;;;5075825;28;45748;-63
2022/07/16 06:21:11;;;;;;;;;5.25;5.25;;;;;;;;5075706;28;45408;-62
2022/07/16 06:23:36;;;;;;;;;5.25;5.25;;;;;;;;5075613;28;45578;-63
2022/07/16 06:26:01;;;;;;;;;4.50;3.50;;;;;;;;5075606;28;46334;-64
2022/07/16 06:28:27;;;;;;;;;4.75;4.25;;;;;;;;5075545;28;45454;-63
2022/07/16 06:30:52;;;;;;;;;5.50;5.50;;;;;;;;5075788;28;45359;-63
2022/07/16 06:33:17;;;;;;;;;4.75;3.75;;;;;;;;5075716;28;45405;-63
2022/07/16 06:35:43;;;;;;;;;4.50;4.50;;;;;;;;5075341;28;45750;-63
2022/07/16 06:38:08;;;;;;;;;3.25;3.25;;;;;;;;5092733;27;45430;-63
2022/07/16 06:40:33;;;;;;;;;5.75;5.75;;;;;;;;5095771;27;45419;-63
2022/07/16 06:43:00;;;;;;;;;4.00;4.00;;;;;;;;5095629;27;45322;-62
2022/07/16 06:45:26;;;;;;;;;6.00;4.75;;;;;;;;5095484;27;47561;-63
2022/07/16 06:47:51;;;;;;;;;6.50;5.50;;;;;;;;5095541;27;45396;-62
2022/07/16 06:50:16;;;;;;;;;4.00;4.00;;;;;;;;5095737;27;45668;-63
2022/07/16 06:52:42;;;;;;;;;5.50;5.50;;;;;;;;5095838;27;45489;-62
2022/07/16 06:55:07;;;;;;;;;5.50;4.00;;;;;;;;5095573;27;46571;-64
2022/07/16 06:57:33;;;;;;;;;3.00;3.00;;;;;;;;5095608;27;45396;-62
2022/07/16 06:59:58;;;;;;;;;5.00;5.00;;;;;;;;5095809;27;45478;-63
2022/07/16 07:02:23;;;;;;;;;3.25;3.25;;;;;;;;5095523;27;45419;-63
2022/07/16 07:04:49;;;;;;;;;3.75;3.50;;;;;;;;5095403;27;45771;-64
2022/07/16 07:07:14;;;;;;;;;4.75;3.75;;;;;;;;5095555;27;45396;-64
2022/07/16 07:09:39;;;;;;;;;4.00;3.00;;;;;;;;5095639;27;45492;-64
2022/07/16 07:12:05;;;;;;;;;5.75;4.75;;;;;;;;5095473;27;46202;-65
2022/07/16 07:14:30;;;;;;;;;3.75;3.75;;;;;;;;5095141;27;46375;-63
2022/07/16 07:16:55;;;;;;;;;4.75;4.50;;;;;;;;5076776;27;45448;-63
2022/07/16 07:19:20;;;;;;;;;3.00;3.00;;;;;;;;5095233;27;45395;-63
2022/07/16 07:21:46;;;;;;;;;5.00;5.00;;;;;;;;5095196;27;45554;-64
2022/07/16 07:24:11;;;;;;;;;2.00;2.00;;;;;;;;5094887;27;46142;-63
2022/07/16 07:26:36;;;;;;;;;3.00;2.75;;;;;;;;5094833;27;45477;-65
2022/07/16 07:29:01;;;;;;;;;2.75;2.75;;;;;;;;5095051;27;45456;-64
2022/07/16 07:31:26;;;;;;;;;3.50;3.50;;;;;;;;5095401;27;45463;-65
2022/07/16 07:33:52;;;;;;;;;2.25;2.25;;;;;;;;5094992;27;45937;-64
2022/07/16 07:36:17;;;;;;;;;2.25;2.00;;;;;;;;5094808;27;45623;-64
2022/07/16 07:38:42;;;;;;;;;2.50;2.50;;;;;;;;5095042;27;45930;-63
2022/07/16 07:41:09;;;;;;;;;4.75;3.75;;;;;;;;5095089;27;45916;-64
2022/07/16 07:43:34;;;;;;;;;3.00;3.00;;;;;;;;5076464;27;46883;-62
2022/07/16 07:45:59;;;;;;;;;3.50;3.50;;;;;;;;5094928;27;45411;-63
2022/07/16 07:48:24;;;;;;;;;6.00;4.00;;;;;;;;5095190;27;45344;-63
2022/07/16 07:50:50;;;;;;;;;5.50;5.50;;;;;;;;5076575;27;45618;-62
2022/07/16 07:53:15;;;;;;;;;4.00;4.00;;;;;;;;5095119;27;46075;-64
2022/07/16 07:55:41;;;;;;;;;4.25;4.25;;;;;;;;5094779;27;45443;-63
2022/07/16 07:58:06;;;;;;;;;4.25;4.25;;;;;;;;5094917;27;45487;-62
2022/07/16 08:00:31;;;;;;;;;4.00;3.00;;;;;;;;5094708;27;45536;-63
2022/07/16 08:02:57;;;;;;;;;2.75;2.75;;;;;;;;5094564;27;46404;-64
2022/07/16 08:05:22;;;;;;;;;2.00;2.00;;;;;;;;5058967;27;45449;-64
2022/07/16 08:07:48;;;;;;;;;4.00;4.00;;;;;;;;5076267;27;45473;-63
2022/07/16 08:10:13;;;;;;;;;3.00;3.00;;;;;;;;5094985;27;45475;-62
2022/07/16 08:12:39;;;;;;;;;3.75;3.75;;;;;;;;5094669;27;46048;-64
2022/07/16 08:15:04;;;;;;;;;3.75;3.75;;;;;;;;5076013;27;45467;-63
2022/07/16 08:17:30;;;;;;;;;4.00;4.00;;;;;;;;5094585;27;45392;-64
2022/07/16 08:19:55;;;;;;;;;10.75;9.25;;;;;;;;5076098;27;46028;-64
2022/07/16 08:22:20;;;;;;;;;4.00;2.75;;;;;;;;5094268;27;46477;-62
2022/07/16 08:27:29;;;;;;;;;3.00;3.00;;;;;;;;5094386;27;45424;-65
2022/07/16 08:29:54;;;;;;;;;6.00;6.00;;;;;;;;5094288;27;45392;-63
2022/07/16 08:32:20;;;;;;;;;3.50;3.50;;;;;;;;5094125;27;46369;-64
2022/07/16 08:34:45;;;;;;;;;3.00;3.00;;;;;;;;5094153;27;45679;-64
2022/07/16 08:37:11;;;;;;;;;4.00;4.00;;;;;;;;5075336;27;45443;-64
2022/07/16 08:39:43;;;;;;;;;4.00;4.00;;;;;;;;5093829;27;45475;-65
2022/07/16 08:42:10;;;;;;;;;3.50;3.00;;;;;;;;5093961;27;46560;-65
2022/07/16 08:44:37;;;;;;;;;4.75;4.00;;;;;;;;5075322;27;45392;-63
2022/07/16 08:47:02;;;;;;;;;3.00;2.00;;;;;;;;5093899;27;45499;-64
2022/07/16 08:49:29;;;;;;;;;4.00;2.75;;;;;;;;5093833;27;45521;-63
2022/07/16 08:51:58;;;;;;;;;4.00;2.50;;;;;;;;5093849;27;47199;-64
2022/07/16 08:54:24;;;;;;;;;3.00;3.00;;;;;;;;5093864;27;46034;-66
2022/07/16 08:56:50;;;;;;;;;5.00;3.25;;;;;;;;5093672;27;45435;-63
2022/07/16 08:59:15;;;;;;;;;3.25;3.25;;;;;;;;5093463;27;45513;-63
2022/07/16 09:01:41;;;;;;;;;2.50;2.50;;;;;;;;5075047;27;47573;-64
2022/07/16 09:04:06;;;;;;;;;5.00;3.75;;;;;;;;5074952;27;45512;-63
2022/07/16 09:06:32;;;;;;;;;3.75;3.75;;;;;;;;5093786;27;45478;-64
2022/07/16 09:08:57;;;;;;;;;2.00;2.00;;;;;;;;5093520;27;45366;-63
2022/07/16 09:11:24;;;;;;;;;3.00;2.75;;;;;;;;5093604;27;45961;-63
2022/07/16 09:13:59;;;;;;;;;3.50;3.00;;;;;;;;5093578;27;45466;-64
2022/07/16 09:16:32;;;;;;;;;2.00;2.00;;;;;;;;5093448;27;45451;-63
2022/07/16 09:19:01;;;;;;;;;2.00;2.00;;;;;;;;5074749;27;45457;-63
2022/07/16 09:21:27;;;;;;;;;4.50;3.50;;;;;;;;5074802;27;46804;-63
2022/07/16 09:23:52;;;;;;;;;1.25;1.25;;;;;;;;5093399;27;45616;-64
2022/07/16 09:26:18;;;;;;;;;3.75;3.00;;;;;;;;5075168;27;45801;-64
2022/07/16 09:28:45;;;;;;;;;2.00;2.00;;;;;;;;5093397;27;45429;-63
2022/07/16 09:31:11;;;;;;;;;4.00;4.00;;;;;;;;5093045;27;45722;-63
2022/07/16 09:33:37;;;;;;;;;3.00;3.00;;;;;;;;5092950;27;45562;-64
2022/07/16 09:36:07;;;;;;;;;4.00;4.00;;;;;;;;5074607;27;45448;-63
2022/07/16 09:38:49;;;;;;;;;3.50;3.50;;;;;;;;5093379;27;45466;-63
2022/07/16 09:41:14;;;;;;;;;3.25;3.25;;;;;;;;5093062;27;45870;-63
2022/07/16 09:43:41;;;;;;;;;2.75;2.75;;;;;;;;5092903;27;45423;-63
2022/07/16 09:46:07;;;;;;;;;3.00;3.00;;;;;;;;5093291;27;45486;-63
2022/07/16 09:48:35;;;;;;;;;3.00;3.00;;;;;;;;5093341;27;45341;-64
2022/07/16 09:51:14;;;;;;;;;2.50;2.50;;;;;;;;5096407;27;46353;-63
2022/07/16 09:53:40;;;;;;;;;3.75;2.50;;;;;;;;5096570;27;45507;-63
2022/07/16 09:56:07;;;;;;;;;3.00;2.00;;;;;;;;5096673;27;45444;-64
2022/07/16 09:58:33;;;;;;;;;2.25;2.25;;;;;;;;5096634;27;45457;-63
2022/07/16 10:00:59;;;;;;;;;5.00;4.00;;;;;;;;5077843;27;47507;-63
2022/07/16 10:03:25;;;;;;;;;2.50;2.50;;;;;;;;5096449;27;45548;-63
2022/07/16 10:05:50;;;;;;;;;2.00;2.00;;;;;;;;5096542;27;45346;-64
2022/07/16 10:08:15;;;;;;;;;1.75;1.75;;;;;;;;5096438;27;45683;-64
2022/07/16 10:10:41;;;;;;;;;1.50;1.50;;;;;;;;5096418;27;45461;-62
2022/07/16 10:13:07;;;;;;;;;2.00;2.00;;;;;;;;5077870;27;45771;-63
2022/07/16 10:15:33;;;;;;;;;5.00;3.25;;;;;;;;5077872;27;45421;-63
2022/07/16 10:17:58;;;;;;;;;3.00;3.00;;;;;;;;5096344;27;45445;-64
2022/07/16 10:20:23;;;;;;;;;2.00;2.00;;;;;;;;5077526;27;48561;-62
2022/07/16 10:22:49;;;;;;;;;2.00;2.00;;;;;;;;5096122;27;45405;-64
2022/07/16 10:25:25;;;;;;;;;2.50;2.00;;;;;;;;5096265;27;45404;-64
2022/07/16 10:27:51;;;;;;;;;3.75;3.75;;;;;;;;5077773;27;45559;-64
2022/07/16 10:30:18;;;;;;;;;6.25;4.25;;;;;;;;5077426;27;47749;-64
2022/07/16 10:32:59;;;;;;;;;7.00;6.00;;;;;;;;5096365;27;45526;-63
2022/07/16 10:35:28;;;;;;;;;2.50;2.25;;;;;;;;5096116;27;45435;-66
2022/07/16 10:38:23;;;;;;;;;2.75;2.75;;;;;;;;5096098;27;45388;-63
2022/07/16 10:41:09;;;;;;;;;1.50;1.50;;;;;;;;5081882;27;45568;-63
2022/07/16 10:43:35;;;;;;;;;11.75;11.75;;;;;;;;5076702;27;45932;-63
2022/07/16 10:46:01;;;;;;;;;25.50;24.75;;;;;;;;5077586;27;45353;-63
2022/07/16 10:48:35;;;;;;;;;8.50;8.50;;;;;;;;5096001;27;45627;-63
2022/07/16 10:51:17;;;;;;;;;7.50;7.50;;;;;;;;5076927;27;46513;-63
2022/07/16 10:53:58;;;;;;;;;20.75;20.75;;;;;;;;5095614;27;45374;-63
2022/07/16 10:56:42;;;;;;;;;19.00;19.00;;;;;;;;5095693;27;45393;-63
2022/07/16 10:59:11;;;;;;;;;27.25;26.25;;;;;;;;5076943;27;45466;-63
2022/07/16 11:01:37;;;;;;;;;10.00;9.00;;;;;;;;5094550;27;45759;-64
2022/07/16 11:04:03;;;;;;;;;12.50;12.50;;;;;;;;5094800;27;45521;-63
2022/07/16 11:06:28;;;;;;;;;4.25;3.00;;;;;;;;5094940;27;45412;-63
2022/07/16 11:08:56;;;;;;;;;2.00;2.00;;;;;;;;5095039;27;45458;-64
2022/07/16 11:11:22;;;;;;;;;4.25;4.25;;;;;;;;5094927;27;46154;-63
2022/07/16 11:13:48;;;;;;;;;4.50;4.50;;;;;;;;5076206;27;45958;-63
2022/07/16 11:16:13;;;;;;;;;2.75;2.75;;;;;;;;5094815;27;45861;-64
2022/07/16 11:18:39;;;;;;;;;2.25;2.25;;;;;;;;5076543;27;45522;-64
2022/07/16 11:21:05;;;;;;;;;4.75;4.75;;;;;;;;5094309;27;47315;-63
2022/07/16 11:23:30;;;;;;;;;0.00;0.00;;;;;;;;5076310;27;46088;-64
2022/07/16 11:25:57;;;;;;;;;4.25;3.50;;;;;;;;5095052;27;45367;-63
2022/07/16 11:28:22;;;;;;;;;2.75;2.75;;;;;;;;5094629;27;45419;-64
2022/07/16 11:31:00;;;;;;;;;3.00;3.00;;;;;;;;5094392;27;45712;-63
2022/07/16 11:33:33;;;;;;;;;3.00;3.00;;;;;;;;5094608;27;45714;-63
2022/07/16 11:36:02;;;;;;;;;2.75;2.75;;;;;;;;5075803;27;45421;-64
2022/07/16 11:38:27;;;;;;;;;3.00;2.75;;;;;;;;5094342;27;45534;-63
2022/07/16 11:40:56;;;;;;;;;4.25;3.25;;;;;;;;5094015;27;45539;-63
2022/07/16 11:43:27;;;;;;;;;1.50;1.50;;;;;;;;5094285;27;45849;-63
2022/07/16 11:45:52;;;;;;;;;3.00;3.00;;;;;;;;5094219;27;45427;-63
2022/07/16 11:48:19;;;;;;;;;3.00;3.00;;;;;;;;5094371;27;45477;-64
2022/07/16 11:50:45;;;;;;;;;3.00;2.00;;;;;;;;5075749;27;47451;-63
2022/07/16 11:53:11;;;;;;;;;4.00;3.50;;;;;;;;5094635;27;45941;-62
2022/07/16 11:55:46;;;;;;;;;3.25;3.25;;;;;;;;5094583;27;45472;-63
2022/07/16 11:58:12;;;;;;;;;4.00;4.00;;;;;;;;5094537;27;45458;-63
2022/07/16 12:00:44;;;;;;;;;3.75;3.75;;;;;;;;5094092;27;46290;-63
2022/07/16 12:03:09;;;;;;;;;5.00;5.00;;;;;;;;5094280;27;45372;-63
2022/07/16 12:05:34;;;;;;;;;5.00;3.00;;;;;;;;5094320;27;45408;-63
2022/07/16 12:08:02;;;;;;;;;4.00;4.00;;;;;;;;5094391;27;45388;-63
2022/07/16 12:10:27;;;;;;;;;4.00;4.00;;;;;;;;5094281;27;46577;-63
2022/07/16 12:13:06;;;;;;;;;3.50;3.50;;;;;;;;5074518;27;45592;-63
2022/07/16 12:15:51;;;;;;;;;3.50;3.25;;;;;;;;5094296;27;45495;-64
2022/07/16 12:18:16;;;;;;;;;5.00;5.00;;;;;;;;5093958;27;45579;-63
2022/07/16 12:20:42;;;;;;;;;5.00;4.50;;;;;;;;5075293;27;48279;-63
2022/07/16 12:23:11;;;;;;;;;3.50;3.50;;;;;;;;5094027;27;45424;-64
2022/07/16 12:25:40;;;;;;;;;4.00;3.00;;;;;;;;5094519;27;45597;-64
2022/07/16 12:28:05;;;;;;;;;4.00;4.00;;;;;;;;5093875;27;45439;-64
2022/07/16 12:30:34;;;;;;;;;5.00;5.00;;;;;;;;5093773;27;46214;-63
2022/07/16 12:33:00;;;;;;;;;4.00;4.00;;;;;;;;5093618;27;45446;-63
2022/07/16 12:35:44;;;;;;;;;3.75;3.75;;;;;;;;5093390;27;45469;-63
2022/07/16 12:38:29;;;;;;;;;7.25;7.25;;;;;;;;5093252;27;45523;-63
2022/07/16 12:40:54;;;;;;;;;14.25;14.25;;;;;;;;5092803;27;47350;-63
2022/07/16 12:43:19;;;;;;;;;3.00;3.00;;;;;;;;5093164;27;45531;-63
2022/07/16 12:45:45;;;;;;;;;30.25;29.50;;;;;;;;5093328;27;45444;-63
2022/07/16 12:48:10;;;;;;;;;41.75;35.00;;;;;;;;5093241;27;45437;-64
2022/07/16 12:50:35;;;;;;;;;4.75;3.50;;;;;;;;5093315;27;45594;-64
2022/07/16 12:53:00;;;;;;;;;5.75;4.25;;;;;;;;5093000;27;45505;-63
2022/07/16 13:00:53;;;;;;;;;3.25;3.25;;;;;;;;5092709;27;45554;-62
2022/07/16 13:03:18;;;;;;;;;3.50;3.50;;;;;;;;5092886;27;45491;-63
2022/07/16 13:05:43;;;;;;;;;4.25;3.75;;;;;;;;5092903;27;45489;-62
2022/07/16 13:08:09;;;;;;;;;5.00;5.00;;;;;;;;5093062;27;45460;-64
2022/07/16 13:10:36;;;;;;;;;8.00;7.75;;;;;;;;5092829;27;46658;-63
2022/07/16 13:13:01;;;;;;;;;5.25;5.25;;;;;;;;5092786;27;45468;-63
2022/07/16 13:15:26;;;;;;;;;7.00;5.00;;;;;;;;5092970;27;45424;-63
2022/07/16 13:17:51;;;;;;;;;5.50;5.50;;;;;;;;5092901;27;45508;-62
2022/07/16 13:20:17;;;;;;;;;4.75;4.75;;;;;;;;5092611;27;45641;-64
2022/07/16 13:22:42;;;;;;;;;8.50;6.00;;;;;;;;5092834;27;45466;-63
2022/07/16 13:25:07;;;;;;;;;7.25;5.75;;;;;;;;5092405;27;45392;-63
2022/07/16 13:27:32;;;;;;;;;7.75;6.75;;;;;;;;5074272;27;45714;-62
2022/07/16 13:29:58;;;;;;;;;8.50;7.50;;;;;;;;5092725;27;45600;-63
2022/07/16 13:32:23;;;;;;;;;5.50;4.50;;;;;;;;5092674;27;45417;-63
2022/07/16 13:34:48;;;;;;;;;3.75;3.75;;;;;;;;5092912;27;45481;-63
2022/07/16 13:37:13;;;;;;;;;7.50;7.50;;;;;;;;5092712;27;45778;-63
2022/07/16 13:39:39;;;;;;;;;5.50;5.50;;;;;;;;5092695;27;46291;-63
2022/07/16 13:42:04;;;;;;;;;5.25;5.25;;;;;;;;5092856;27;45392;-62
2022/07/16 13:44:29;;;;;;;;;6.00;6.00;;;;;;;;5074590;27;46252;-63
2022/07/16 13:46:54;;;;;;;;;5.50;5.50;;;;;;;;5092938;27;45405;-62
2022/07/16 13:49:20;;;;;;;;;6.00;6.00;;;;;;;;5092778;27;45522;-62
2022/07/16 13:51:46;;;;;;;;;8.25;8.25;;;;;;;;5074465;27;45657;-62
2022/07/16 13:54:12;;;;;;;;;8.25;7.75;;;;;;;;5092879;27;45452;-64
2022/07/16 13:56:37;;;;;;;;;7.50;6.75;;;;;;;;5092401;27;45338;-63
2022/07/16 13:59:03;;;;;;;;;6.50;6.00;;;;;;;;5092108;27;46480;-62
2022/07/16 14:01:28;;;;;;;;;5.00;3.00;;;;;;;;5073771;27;45590;-63
2022/07/16 14:03:53;;;;;;;;;12.25;12.25;;;;;;;;5092579;27;45511;-62
2022/07/16 14:06:18;;;;;;;;;7.50;7.50;;;;;;;;5092202;27;45517;-62
2022/07/16 14:08:43;;;;;;;;;7.00;7.00;;;;;;;;5092219;27;46804;-62
2022/07/16 14:11:09;;;;;;;;;6.50;4.75;;;;;;;;5092029;27;45413;-62
2022/07/16 14:13:34;;;;;;;;;6.25;4.50;;;;;;;;5092422;27;45409;-62
2022/07/16 14:15:59;;;;;;;;;5.50;5.50;;;;;;;;5073883;27;45902;-63
2022/07/16 14:18:24;;;;;;;;;4.00;4.00;;;;;;;;5092218;27;46110;-62
2022/07/16 14:20:50;;;;;;;;;6.50;4.25;;;;;;;;5073530;27;46233;-63
2022/07/16 14:23:15;;;;;;;;;3.00;3.00;;;;;;;;5092234;27;45452;-62
2022/07/16 14:25:41;;;;;;;;;3.25;3.25;;;;;;;;5073439;27;45497;-63
2022/07/16 14:28:07;;;;;;;;;3.00;2.00;;;;;;;;5073367;27;47441;-63
2022/07/16 14:30:33;;;;;;;;;3.50;3.50;;;;;;;;5092074;27;45987;-62
2022/07/16 14:32:58;;;;;;;;;4.25;3.00;;;;;;;;5091885;27;45348;-62
2022/07/16 14:35:23;;;;;;;;;3.00;3.00;;;;;;;;5091791;27;45866;-63
2022/07/16 14:37:49;;;;;;;;;4.00;3.00;;;;;;;;5095038;27;46167;-63
2022/07/16 14:40:15;;;;;;;;;4.50;3.75;;;;;;;;5095223;27;45488;-62
2022/07/16 14:42:41;;;;;;;;;4.25;2.75;;;;;;;;5095158;27;45438;-63
2022/07/16 14:45:07;;;;;;;;;4.00;4.00;;;;;;;;5094932;27;45408;-61
2022/07/16 14:47:33;;;;;;;;;5.75;5.75;;;;;;;;5076536;27;46777;-63
2022/07/16 14:49:58;;;;;;;;;4.50;4.25;;;;;;;;5095094;27;45412;-63
2022/07/16 14:52:24;;;;;;;;;4.00;4.00;;;;;;;;5095258;27;45455;-63
2022/07/16 14:54:49;;;;;;;;;1.50;1.50;;;;;;;;5095213;27;45489;-63